Time;durP1;ratioP1;P1;durP2;ratioP2;P2;SDS_P1;SDS_P2;PMS_P1;PMS_P2;Temp;Humidity;BMP_temperature;BMP_pressure;BME280_temperature;BME280_humidity;BME280_pressure;Samples;Min_cycle;Max_cycle;Signal;HPM_P1;HPM_P2
2021/08/29 00:00:07;;;;;;;3.08;1.09;;;;;;;14.64;89.40;99548.28;2299324;69;20162;-80
2021/08/29 00:03:09;;;;;;;1.94;1.34;;;;;;;14.65;89.36;99542.16;2299878;67;20692;-79
2021/08/29 00:06:12;;;;;;;1.27;1.17;;;;;;;14.66;89.34;99546.50;2298448;69;20183;-79
2021/08/29 00:09:15;;;;;;;3.29;1.23;;;;;;;14.66;89.47;99539.53;2299053;69;20166;-79
2021/08/29 00:12:18;;;;;;;3.00;1.44;;;;;;;14.66;89.34;99531.69;2299524;69;20170;-79
2021/08/29 00:15:20;;;;;;;3.79;2.00;;;;;;;14.67;89.33;99537.78;2298159;67;23422;-79
2021/08/29 00:18:23;;;;;;;2.06;1.19;;;;;;;14.67;89.46;99537.78;2299273;69;20153;-79
2021/08/29 00:21:26;;;;;;;1.74;1.14;;;;;;;14.68;89.50;99537.75;2298890;69;20246;-80
2021/08/29 00:24:28;;;;;;;1.30;1.20;;;;;;;14.67;89.71;99529.94;2299394;69;20179;-79
2021/08/29 00:27:31;;;;;;;1.49;1.20;;;;;;;14.68;89.66;99529.03;2298047;69;20183;-78
2021/08/29 00:30:33;;;;;;;3.34;1.30;;;;;;;14.67;89.58;99533.41;2296956;67;21059;-80
2021/08/29 00:33:36;;;;;;;1.42;1.01;;;;;;;14.69;89.44;99520.31;2300536;69;20641;-79
2021/08/29 00:36:39;;;;;;;2.54;1.45;;;;;;;14.68;89.54;99523.81;2299286;69;20169;-80
2021/08/29 00:39:42;;;;;;;1.55;1.44;;;;;;;14.66;89.59;99525.59;2300279;69;20235;-79
2021/08/29 00:42:46;;;;;;;1.33;1.23;;;;;;;14.64;89.80;99525.63;2300440;69;20196;-79
2021/08/29 00:45:50;;;;;;;2.28;1.31;;;;;;;14.61;90.09;99522.22;2305271;69;20146;-80
2021/08/29 00:48:53;;;;;;;1.39;1.29;;;;;;;14.59;90.49;99521.38;2306993;69;20230;-81
2021/08/29 00:52:00;;;;;;;1.42;1.35;;;;;;;14.60;90.61;99517.88;2307467;69;20145;-81
2021/08/29 00:55:05;;;;;;;1.49;1.39;;;;;;;14.60;90.46;99516.13;2306383;69;20181;-80
2021/08/29 00:58:07;;;;;;;3.19;1.70;;;;;;;14.62;90.37;99516.09;2306224;69;20187;-82
2021/08/29 01:01:11;;;;;;;2.75;1.35;;;;;;;14.62;90.41;99519.56;2309042;69;20161;-81
2021/08/29 01:04:21;;;;;;;2.36;1.69;;;;;;;14.61;90.51;99517.84;2304712;69;20157;-81
2021/08/29 01:07:38;;;;;;;3.72;1.36;;;;;;;14.61;90.56;99517.84;2305477;69;20157;-81
2021/08/29 01:14:10;;;;;;;4.34;2.03;;;;;;;14.62;90.55;99516.09;2303435;69;20194;-82
2021/08/29 01:17:13;;;;;;;1.70;1.60;;;;;;;14.59;90.67;99509.19;2299531;67;227193;-81
2021/08/29 01:20:45;;;;;;;3.26;1.94;;;;;;;14.57;90.89;99512.72;2300317;69;20143;-82
2021/08/29 01:23:55;;;;;;;2.01;1.91;;;;;;;14.57;91.11;99515.31;2298991;69;20158;-81
2021/08/29 01:27:08;;;;;;;3.61;2.13;;;;;;;14.57;91.00;99510.09;2297576;69;20172;-80
2021/08/29 01:30:11;;;;;;;3.85;2.09;;;;;;;14.57;91.17;99515.31;2298064;69;20158;-81
2021/08/29 01:33:15;;;;;;;4.05;2.30;;;;;;;14.54;91.30;99511.00;2301645;68;20533;-81
2021/08/29 01:36:19;;;;;;;3.19;2.39;;;;;;;14.56;91.37;99513.59;2299500;69;20150;-81
2021/08/29 01:39:23;;;;;;;3.19;2.65;;;;;;;14.56;91.38;99511.84;2301428;69;20567;-80
2021/08/29 01:42:26;;;;;;;3.34;2.91;;;;;;;14.56;91.57;99508.38;2300533;69;20175;-82
2021/08/29 01:45:30;;;;;;;2.89;2.70;;;;;;;14.55;91.58;99507.53;2302186;67;31069;-81
2021/08/29 01:48:33;;;;;;;4.51;2.70;;;;;;;14.58;91.59;99509.22;2303803;69;20197;-80
2021/08/29 01:51:37;;;;;;;5.40;2.85;;;;;;;14.58;91.58;99511.81;2303274;69;20154;-81
2021/08/29 01:54:40;;;;;;;3.19;2.99;;;;;;;14.62;91.44;99510.88;2305562;69;20151;-80
2021/08/29 01:57:43;;;;;;;3.71;3.35;;;;;;;14.62;91.30;99513.47;2302716;69;20158;-83
2021/08/29 02:00:52;;;;;;;4.44;3.63;;;;;;;14.61;91.52;99509.16;2297817;69;20184;-82
2021/08/29 02:03:55;;;;;;;4.46;3.94;;;;;;;14.62;91.44;99516.94;2301787;69;20244;-82
2021/08/29 02:07:14;;;;;;;5.01;4.65;;;;;;;14.62;91.36;99503.88;2302844;69;20162;-81
2021/08/29 02:10:19;;;;;;;4.32;3.92;;;;;;;14.64;91.16;99507.34;2308132;69;20172;-81
2021/08/29 02:13:25;;;;;;;4.59;4.29;;;;;;;14.64;91.10;99509.09;2312785;69;20153;-82
2021/08/29 02:19:48;;;;;;;5.84;5.24;;;;;;;14.64;91.04;99503.84;2308167;69;20170;-82
2021/08/29 02:22:56;;;;;;;5.81;5.31;;;;;;;14.66;90.64;99502.94;2305628;69;20200;-81
2021/08/29 02:25:58;;;;;;;6.14;5.69;;;;;;;14.64;90.54;99506.47;2311656;69;20218;-81
2021/08/29 02:29:02;;;;;;;6.35;5.75;;;;;;;14.63;90.40;99505.59;2306997;69;20154;-81
2021/08/29 02:32:07;;;;;;;6.76;6.16;;;;;;;14.61;90.33;99514.38;2305823;67;86540;-81
2021/08/29 02:35:11;;;;;;;7.39;6.75;;;;;;;14.61;90.25;99501.31;2308394;69;20137;-81
2021/08/29 02:38:15;;;;;;;7.22;6.53;;;;;;;14.63;89.76;99502.13;2308588;69;20206;-81
2021/08/29 02:41:18;;;;;;;8.75;6.46;;;;;;;14.64;89.44;99502.09;2306856;69;20153;-81
2021/08/29 02:44:22;;;;;;;7.34;6.74;;;;;;;14.64;89.20;99503.84;2307969;69;20230;-81
2021/08/29 02:47:25;;;;;;;6.89;6.29;;;;;;;14.65;89.25;99502.97;2305685;67;21155;-81
2021/08/29 02:50:30;;;;;;;7.56;6.86;;;;;;;14.64;89.12;99507.34;2306687;69;20177;-81
2021/08/29 02:53:32;;;;;;;7.95;7.16;;;;;;;14.63;88.73;99500.38;2307032;69;20149;-80
2021/08/29 02:56:36;;;;;;;7.88;7.11;;;;;;;14.66;88.38;99496.84;2305909;69;20179;-80
2021/08/29 02:59:39;;;;;;;7.50;6.90;;;;;;;14.65;88.07;99498.59;2305888;69;20197;-81
2021/08/29 03:02:42;;;;;;;8.07;7.28;;;;;;;14.65;87.88;99497.72;2303365;67;22966;-80
2021/08/29 03:05:45;;;;;;;9.09;7.13;;;;;;;14.65;87.60;99497.72;2303508;69;20341;-79
2021/08/29 03:08:47;;;;;;;7.54;6.78;;;;;;;14.62;87.41;99492.56;2304555;69;20190;-80
2021/08/29 03:11:50;;;;;;;7.74;7.14;;;;;;;14.59;87.11;99495.25;2304484;69;20177;-80
2021/08/29 03:14:53;;;;;;;8.06;6.68;;;;;;;14.59;86.88;99484.78;2302340;69;20512;-80
2021/08/29 03:17:57;;;;;;;8.16;7.35;;;;;;;14.57;86.79;99486.59;2302440;67;26238;-80
2021/08/29 03:21:00;;;;;;;7.93;7.25;;;;;;;14.54;86.61;99482.25;2303462;69;20162;-80
2021/08/29 03:24:03;;;;;;;7.84;7.04;;;;;;;14.55;86.53;99488.38;2306912;69;20270;-80
2021/08/29 03:27:07;;;;;;;7.61;6.91;;;;;;;14.51;86.54;99482.31;2303637;69;20150;-81
2021/08/29 03:30:10;;;;;;;7.59;6.99;;;;;;;14.49;86.40;99486.72;2305283;69;20172;-80
2021/08/29 03:33:13;;;;;;;7.70;6.88;;;;;;;14.44;86.61;99494.63;2307714;69;20189;-81
2021/08/29 03:36:21;;;;;;;8.09;7.34;;;;;;;14.42;86.78;99485.94;2305318;69;20154;-79
2021/08/29 03:39:27;;;;;;;7.63;6.89;;;;;;;14.38;86.75;99481.66;2304220;69;20154;-80
2021/08/29 03:42:32;;;;;;;7.66;7.03;;;;;;;14.35;87.00;99473.84;2306313;69;20304;-80
2021/08/29 03:45:35;;;;;;;8.32;7.55;;;;;;;14.35;87.20;99480.84;2304789;67;23111;-80
2021/08/29 03:48:38;;;;;;;8.15;6.99;;;;;;;14.33;87.18;99483.47;2305361;69;20686;-80
2021/08/29 03:51:42;;;;;;;8.09;7.29;;;;;;;14.32;87.38;99478.28;2306284;69;20154;-81
2021/08/29 03:54:46;;;;;;;9.24;7.50;;;;;;;14.27;87.73;99482.75;2305612;69;20205;-79
2021/08/29 03:57:50;;;;;;;8.04;7.01;;;;;;;14.25;87.71;99482.78;2305816;69;20161;-81
2021/08/29 04:00:53;;;;;;;7.47;6.81;;;;;;;14.28;87.63;99484.47;2308508;67;22215;-80
2021/08/29 04:03:56;;;;;;;7.81;7.04;;;;;;;14.26;87.49;99489.72;2305403;69;20810;-80
2021/08/29 04:07:04;;;;;;;7.04;6.43;;;;;;;14.28;87.36;99495.78;2304547;69;20153;-80
2021/08/29 04:10:08;;;;;;;8.16;7.34;;;;;;;14.26;87.30;99487.09;2303623;69;20161;-81
2021/08/29 04:13:12;;;;;;;8.14;7.39;;;;;;;14.26;87.21;99492.31;2306458;69;20195;-80
2021/08/29 04:16:16;;;;;;;8.45;7.64;;;;;;;14.27;87.16;99481.00;2305221;69;20170;-81
2021/08/29 04:19:20;;;;;;;8.06;7.35;;;;;;;14.28;87.08;99485.31;2304085;69;20186;-80
2021/08/29 04:22:23;;;;;;;10.24;7.19;;;;;;;14.30;87.10;99480.94;2306194;69;20192;-80
2021/08/29 04:25:26;;;;;;;7.96;7.15;;;;;;;14.25;87.09;99485.38;2302448;69;20150;-80
2021/08/29 04:28:29;;;;;;;8.64;7.16;;;;;;;14.27;87.33;99485.34;2305937;69;20154;-80
2021/08/29 04:31:33;;;;;;;10.57;7.78;;;;;;;14.26;87.58;99481.88;2301671;69;20166;-79
2021/08/29 04:34:37;;;;;;;8.10;7.30;;;;;;;14.27;87.69;99478.38;2303036;69;20161;-81
2021/08/29 04:37:40;;;;;;;8.07;7.29;;;;;;;14.28;87.59;99487.94;2302895;69;20157;-81
2021/08/29 04:40:42;;;;;;;8.79;7.57;;;;;;;14.23;87.18;99484.56;2302231;69;20145;-80
2021/08/29 04:43:45;;;;;;;8.82;7.93;;;;;;;14.24;87.26;99491.50;2302401;69;20149;-80
2021/08/29 04:46:48;;;;;;;8.40;7.61;;;;;;;14.24;87.04;99488.88;2300986;67;22560;-80
2021/08/29 04:49:50;;;;;;;8.86;7.72;;;;;;;14.21;86.85;99492.41;2301267;69;20263;-79
2021/08/29 04:52:53;;;;;;;8.93;8.00;;;;;;;14.21;86.90;99488.94;2303660;69;20179;-79
2021/08/29 04:55:55;;;;;;;8.79;7.86;;;;;;;14.19;87.06;99499.41;2301909;69;20280;-80
2021/08/29 04:58:58;;;;;;;9.45;7.99;;;;;;;14.21;87.09;99488.94;2301749;69;20145;-79
2021/08/29 05:02:00;;;;;;;9.26;8.36;;;;;;;14.18;87.28;99489.88;2303092;69;20211;-80
2021/08/29 05:05:04;;;;;;;8.66;7.82;;;;;;;14.20;87.23;99489.84;2312690;69;20284;-83
2021/08/29 05:08:07;;;;;;;8.25;7.40;;;;;;;14.20;86.98;99493.31;2309438;69;20146;-81
2021/08/29 05:11:09;;;;;;;8.40;7.59;;;;;;;14.24;86.74;99499.34;2305323;69;20590;-81
2021/08/29 05:14:12;;;;;;;9.11;6.69;;;;;;;14.25;86.41;99498.44;2312339;69;20171;-82
2021/08/29 05:17:15;;;;;;;8.81;6.63;;;;;;;14.27;85.99;99504.50;2313267;67;23237;-83
2021/08/29 05:20:17;;;;;;;7.71;6.32;;;;;;;14.30;85.97;99506.19;2313272;69;20153;-82
2021/08/29 05:23:20;;;;;;;7.78;7.00;;;;;;;14.30;86.31;99499.22;2312636;69;20138;-82
2021/08/29 05:26:22;;;;;;;8.39;6.13;;;;;;;14.35;86.50;99504.34;2308559;69;20146;-82
2021/08/29 05:29:25;;;;;;;6.51;5.93;;;;;;;14.35;86.80;99502.59;2307245;69;20186;-82
2021/08/29 05:32:27;;;;;;;6.24;5.44;;;;;;;14.37;85.95;99499.97;2310053;67;20240;-81
2021/08/29 05:35:30;;;;;;;7.26;5.18;;;;;;;14.39;86.14;99500.81;2309117;69;20162;-82
2021/08/29 05:38:32;;;;;;;6.31;4.38;;;;;;;14.41;86.01;99501.66;2304246;69;20557;-80
2021/08/29 05:41:35;;;;;;;7.03;4.66;;;;;;;14.41;85.43;99510.34;2302922;69;20177;-80
2021/08/29 05:44:38;;;;;;;4.32;3.90;;;;;;;14.42;85.36;99508.59;2302866;69;20182;-80
2021/08/29 05:47:40;;;;;;;4.04;3.64;;;;;;;14.43;84.61;99503.38;2299454;67;26017;-79
2021/08/29 05:50:43;;;;;;;4.89;3.36;;;;;;;14.45;84.11;99500.72;2302875;69;20153;-82
2021/08/29 05:53:46;;;;;;;3.92;3.47;;;;;;;14.45;84.26;99501.59;2303543;69;20187;-82
2021/08/29 05:56:48;;;;;;;5.64;3.64;;;;;;;14.46;84.13;99498.09;2306947;69;20157;-84
2021/08/29 05:59:51;;;;;;;3.44;3.14;;;;;;;14.50;84.33;99496.28;2310820;69;20179;-82
2021/08/29 06:02:53;;;;;;;3.44;3.14;;;;;;;14.54;84.54;99495.31;2314119;67;24121;-81
2021/08/29 06:05:58;;;;;;;3.30;3.10;;;;;;;14.56;84.25;99496.19;2304505;69;20247;-81
2021/08/29 06:09:01;;;;;;;3.33;3.08;;;;;;;14.62;84.34;99500.41;2305497;69;20399;-80
2021/08/29 06:12:04;;;;;;;3.20;3.00;;;;;;;14.64;84.19;99501.25;2305282;69;20659;-80
2021/08/29 06:15:08;;;;;;;3.40;3.09;;;;;;;14.69;84.26;99502.00;2303932;69;20847;-81
2021/08/29 06:18:10;;;;;;;4.54;3.13;;;;;;;14.73;84.25;99498.47;2300560;67;24289;-80
2021/08/29 06:21:13;;;;;;;3.50;3.20;;;;;;;14.74;83.58;99492.34;2296270;69;20176;-80
2021/08/29 06:24:15;;;;;;;3.70;3.40;;;;;;;14.78;83.14;99491.38;2298224;69;20297;-82
2021/08/29 06:27:18;;;;;;;3.84;3.54;;;;;;;14.82;83.33;99493.91;2297105;69;20166;-82
2021/08/29 06:30:21;;;;;;;3.50;3.19;;;;;;;14.89;83.31;99491.16;2296747;69;20154;-83
2021/08/29 06:33:23;;;;;;;3.38;3.15;;;;;;;14.97;83.16;99491.88;2303333;69;20180;-84
2021/08/29 06:36:26;;;;;;;7.89;3.19;;;;;;;15.04;82.66;99499.56;2301605;69;20176;-84
2021/08/29 06:39:29;;;;;;;3.81;3.24;;;;;;;15.08;82.13;99490.78;2302018;69;20158;-83
2021/08/29 06:42:31;;;;;;;5.54;3.11;;;;;;;15.14;82.58;99491.53;2310072;69;20146;-84
2021/08/29 06:45:34;;;;;;;3.59;3.09;;;;;;;15.20;82.65;99489.63;2306692;67;23428;-83
2021/08/29 06:48:36;;;;;;;5.55;3.19;;;;;;;15.28;82.24;99474.66;2307836;69;20150;-84
2021/08/29 06:51:39;;;;;;;3.30;3.05;;;;;;;15.31;81.82;99474.56;2307783;69;20168;-86
2021/08/29 06:54:41;;;;;;;3.76;3.13;;;;;;;15.38;81.73;99484.00;2305389;70;20158;-85
2021/08/29 06:57:44;;;;;;;3.60;3.00;;;;;;;15.41;81.09;99483.06;2308291;69;20146;-85
2021/08/29 07:00:46;;;;;;;3.72;2.92;;;;;;;15.52;80.92;99485.44;2303536;70;20146;-86
2021/08/29 07:03:50;;;;;;;4.24;2.99;;;;;;;15.59;80.04;99482.66;2307221;70;20251;-85
2021/08/29 07:06:53;;;;;;;3.46;3.13;;;;;;;15.63;79.06;99480.88;2307730;69;20164;-85
2021/08/29 07:09:55;;;;;;;5.71;3.65;;;;;;;15.69;78.83;99486.81;2305643;69;20175;-84
2021/08/29 07:12:58;;;;;;;4.85;3.17;;;;;;;15.77;78.95;99475.28;2306140;69;20154;-85
2021/08/29 07:16:00;;;;;;;3.92;2.95;;;;;;;15.81;78.00;99480.44;2298665;69;20154;-85
2021/08/29 07:19:04;;;;;;;4.68;3.05;;;;;;;15.88;78.10;99478.50;2321276;69;20174;-85
2021/08/29 07:22:06;;;;;;;2.95;2.60;;;;;;;15.92;77.45;99482.75;2325821;69;20181;-85
2021/08/29 07:25:09;;;;;;;4.66;2.83;;;;;;;15.95;77.32;99477.44;2315016;69;20150;-85
2021/08/29 07:28:12;;;;;;;4.07;2.59;;;;;;;15.99;77.30;99481.72;2316857;69;20162;-82
2021/08/29 07:31:14;;;;;;;4.16;2.50;;;;;;;15.99;76.68;99490.44;2305025;69;20219;-81
2021/08/29 07:34:17;;;;;;;4.86;2.50;;;;;;;16.06;77.03;99490.28;2308000;69;20178;-83
2021/08/29 07:37:22;;;;;;;4.29;2.84;;;;;;;16.15;77.15;99492.66;2312549;69;20150;-83
2021/08/29 07:40:25;;;;;;;2.53;2.33;;;;;;;16.18;76.58;99495.22;2311771;69;20138;-82
2021/08/29 07:43:27;;;;;;;5.80;3.19;;;;;;;16.21;75.94;99495.16;2310934;69;20193;-83
2021/08/29 07:46:31;;;;;;;2.97;2.29;;;;;;;16.20;75.52;99502.16;2306174;67;21732;-81
2021/08/29 07:49:33;;;;;;;3.20;2.66;;;;;;;16.18;75.22;99493.47;2305955;69;20183;-81
2021/08/29 07:52:36;;;;;;;3.21;2.64;;;;;;;16.11;74.78;99496.25;2314560;69;20154;-83
2021/08/29 07:55:38;;;;;;;2.30;2.10;;;;;;;16.09;75.85;99495.44;2310355;69;20154;-86
2021/08/29 07:58:41;;;;;;;2.55;2.35;;;;;;;16.09;76.20;99495.44;2319597;69;20183;-88
2021/08/29 08:01:44;;;;;;;2.33;2.13;;;;;;;16.05;75.59;99494.66;2317681;69;20114;-85
2021/08/29 08:04:47;;;;;;;3.39;2.76;;;;;;;16.01;76.02;99501.75;2315828;69;20253;-88
2021/08/29 08:07:49;;;;;;;2.46;2.26;;;;;;;15.97;75.52;99500.06;2317276;69;20149;-86
2021/08/29 08:10:52;;;;;;;2.40;2.20;;;;;;;15.94;75.89;99496.69;2318760;69;20145;-85
2021/08/29 08:13:54;;;;;;;2.86;2.59;;;;;;;15.91;75.53;99502.00;2313127;69;20149;-83
2021/08/29 08:16:57;;;;;;;2.78;2.14;;;;;;;15.90;75.96;99502.91;2308114;69;20146;-78
2021/08/29 08:19:59;;;;;;;2.29;2.19;;;;;;;15.92;76.56;99498.47;2303049;69;20170;-80
2021/08/29 08:23:02;;;;;;;5.56;2.29;;;;;;;15.95;76.32;99496.63;2302959;69;20175;-81
2021/08/29 08:26:07;;;;;;;3.76;2.20;;;;;;;16.01;76.95;99501.75;2304289;69;20217;-79
2021/08/29 08:29:09;;;;;;;2.71;2.51;;;;;;;16.09;77.38;99504.16;2306988;69;20183;-81
2021/08/29 08:32:12;;;;;;;6.19;2.61;;;;;;;16.15;77.03;99503.13;2304132;67;20952;-83
2021/08/29 08:35:14;;;;;;;2.95;2.75;;;;;;;16.20;76.42;99498.66;2306252;69;20246;-80
2021/08/29 08:38:17;;;;;;;3.70;3.03;;;;;;;16.32;76.11;99508.81;2300383;69;20642;-78
2021/08/29 08:41:20;;;;;;;3.74;3.17;;;;;;;16.43;75.65;99511.16;2297144;69;20199;-78
2021/08/29 08:44:23;;;;;;;3.56;3.20;;;;;;;16.49;75.44;99506.59;2300331;69;20183;-82
2021/08/29 08:47:26;;;;;;;4.28;3.89;;;;;;;16.54;75.22;99499.50;2294701;67;20242;-81
2021/08/29 08:50:31;;;;;;;3.26;2.99;;;;;;;16.58;73.28;99497.66;2299783;69;20459;-80
2021/08/29 08:53:36;;;;;;;3.19;2.89;;;;;;;16.61;72.22;99495.81;2299769;69;20150;-80
2021/08/29 08:56:39;;;;;;;4.93;3.09;;;;;;;16.72;72.09;99502.56;2298317;69;20183;-80
2021/08/29 08:59:43;;;;;;;2.99;2.79;;;;;;;16.79;71.90;99501.47;2303063;69;20158;-80
2021/08/29 09:02:46;;;;;;;2.76;2.56;;;;;;;16.85;71.44;99501.28;2298677;67;20203;-78
2021/08/29 09:05:50;;;;;;;2.84;2.53;;;;;;;16.92;71.73;99506.34;2298239;69;20170;-78
2021/08/29 09:08:53;;;;;;;2.24;2.03;;;;;;;16.96;70.66;99511.50;2297466;69;20142;-79
2021/08/29 09:12:12;;;;;;;2.88;2.06;;;;;;;16.98;70.10;99509.69;2298875;69;20161;-79
2021/08/29 09:15:20;;;;;;;1.95;1.77;;;;;;;16.98;69.78;99504.44;2298492;69;20153;-78
2021/08/29 09:18:23;;;;;;;2.10;1.88;;;;;;;17.00;70.27;99507.88;2302929;69;20785;-79
2021/08/29 09:21:29;;;;;;;1.80;1.70;;;;;;;17.11;71.62;99509.28;2299460;69;20176;-79
2021/08/29 09:24:32;;;;;;;2.04;1.77;;;;;;;17.14;71.27;99510.97;2298692;69;20179;-79
2021/08/29 09:27:34;;;;;;;3.47;1.46;;;;;;;17.15;70.91;99504.81;2300215;69;20149;-78
2021/08/29 09:30:47;;;;;;;2.70;1.31;;;;;;;17.05;68.87;99513.84;2294881;67;22566;-78
2021/08/29 09:34:00;;;;;;;3.50;1.48;;;;;;;17.06;69.57;99515.59;2296783;69;20198;-78
2021/08/29 09:37:03;;;;;;;1.54;1.36;;;;;;;17.02;68.61;99517.41;2295910;69;20153;-77
2021/08/29 09:40:21;;;;;;;2.89;1.49;;;;;;;16.98;69.23;99523.66;2295945;69;20185;-77
2021/08/29 09:43:35;;;;;;;2.08;1.40;;;;;;;17.02;70.04;99513.94;2297009;69;20985;-77
2021/08/29 09:46:51;;;;;;;3.45;1.48;;;;;;;17.00;69.62;99521.84;2295566;67;24656;-77
2021/08/29 09:49:58;;;;;;;1.54;1.42;;;;;;;17.00;70.18;99524.47;2296327;69;20596;-76
2021/08/29 09:53:11;;;;;;;1.44;1.33;;;;;;;16.97;69.10;99519.31;2296509;69;20142;-76
2021/08/29 09:56:21;;;;;;;1.76;1.31;;;;;;;16.93;69.45;99525.56;2296886;69;20199;-79
2021/08/29 09:59:42;;;;;;;3.34;1.75;;;;;;;16.94;69.84;99522.03;2296072;69;20301;-78
2021/08/29 10:02:45;;;;;;;1.75;1.40;;;;;;;16.99;70.48;99522.75;2296706;67;21795;-79
2021/08/29 10:05:47;;;;;;;2.45;1.40;;;;;;;17.02;70.17;99521.81;2296200;69;20601;-77
2021/08/29 10:08:52;;;;;;;3.30;1.38;;;;;;;17.06;70.08;99523.47;2289914;69;20183;-77
2021/08/29 10:11:56;;;;;;;4.11;1.77;;;;;;;17.09;70.80;99520.75;2296570;69;20846;-77
2021/08/29 10:14:58;;;;;;;2.00;1.49;;;;;;;17.15;71.75;99525.81;2296442;69;20680;-77
2021/08/29 10:18:02;;;;;;;1.39;1.26;;;;;;;17.20;72.50;99524.75;2295801;67;20260;-77
2021/08/29 10:21:05;;;;;;;1.69;1.23;;;;;;;17.25;73.46;99523.78;2297282;69;20142;-78
2021/08/29 10:24:11;;;;;;;1.40;1.30;;;;;;;17.29;73.43;99518.41;2292016;69;20238;-78
2021/08/29 10:27:17;;;;;;;2.86;1.50;;;;;;;17.30;72.46;99514.88;2298996;69;20166;-79
2021/08/29 10:30:20;;;;;;;2.89;1.27;;;;;;;17.34;71.53;99513.84;2307757;69;20145;-82
2021/08/29 10:33:24;;;;;;;2.85;1.06;;;;;;;17.39;72.88;99514.56;2306378;69;20165;-81
2021/08/29 10:36:27;;;;;;;1.61;1.26;;;;;;;17.50;73.88;99509.88;2304607;69;20218;-81
2021/08/29 10:39:30;;;;;;;1.35;1.00;;;;;;;17.58;73.42;99508.75;2306128;69;20178;-80
2021/08/29 10:42:35;;;;;;;3.67;1.34;;;;;;;17.70;73.07;99509.28;2304713;69;20197;-79
2021/08/29 10:45:38;;;;;;;3.47;1.04;;;;;;;17.85;72.75;99496.56;2303515;67;20178;-80
2021/08/29 10:48:44;;;;;;;1.42;1.08;;;;;;;17.96;72.35;99502.34;2303790;69;20197;-81
2021/08/29 10:51:49;;;;;;;1.29;0.98;;;;;;;18.22;71.65;99504.09;2305737;69;20170;-82
2021/08/29 10:54:54;;;;;;;2.29;1.24;;;;;;;18.56;70.86;99495.91;2302984;69;20205;-81
2021/08/29 10:58:02;;;;;;;1.45;1.00;;;;;;;18.95;70.18;99496.28;2304891;69;20162;-81
2021/08/29 11:01:05;;;;;;;;;;;;;;;19.07;68.63;99493.19;2302869;67;21176;-80
2021/08/29 11:04:17;;;;;;;2.08;0.90;;;;;;;19.02;67.30;99495.97;2303216;69;20070;-80
2021/08/29 11:07:40;;;;;;;2.69;1.08;;;;;;;18.93;67.23;99490.22;2301634;69;20171;-81
2021/08/29 11:10:45;;;;;;;1.38;1.09;;;;;;;18.77;66.65;99496.94;2301403;69;20219;-81
2021/08/29 11:13:48;;;;;;;1.94;1.19;;;;;;;18.57;67.78;99493.22;2301185;69;20227;-80
2021/08/29 11:17:09;;;;;;;2.26;1.06;;;;;;;18.41;67.41;99492.03;2299289;67;26305;-79
2021/08/29 11:20:15;;;;;;;2.65;0.95;;;;;;;18.23;68.29;99496.16;2295431;69;20177;-79
2021/08/29 11:23:43;;;;;;;1.27;1.00;;;;;;;18.20;69.72;99504.16;2300497;69;20203;-80
2021/08/29 11:26:45;;;;;;;2.04;1.06;;;;;;;18.16;68.29;99493.81;2297142;69;20189;-81
2021/08/29 11:29:53;;;;;;;12.82;2.69;;;;;;;18.17;68.96;99492.88;2306039;69;20149;-83
2021/08/29 11:32:56;;;;;;;3.11;1.21;;;;;;;18.27;68.62;99487.25;2308800;69;21353;-84
2021/08/29 11:35:59;;;;;;;1.26;1.15;;;;;;;18.43;69.31;99488.44;2303994;69;20263;-79
2021/08/29 11:39:02;;;;;;;2.01;1.10;;;;;;;18.53;68.43;99482.88;2300426;69;20179;-78
2021/08/29 11:42:18;;;;;;;1.83;1.19;;;;;;;18.57;67.48;99487.09;2297804;69;20810;-81
2021/08/29 11:45:23;;;;;;;4.38;1.55;;;;;;;18.46;66.22;99487.47;2297755;69;20662;-79
2021/08/29 11:48:29;;;;;;;1.56;1.10;;;;;;;18.40;65.75;99478.03;2297264;69;20218;-78
2021/08/29 11:51:34;;;;;;;1.30;1.15;;;;;;;18.46;66.90;99479.59;2297160;69;20173;-79
2021/08/29 11:54:36;;;;;;;1.86;1.20;;;;;;;18.52;67.21;99484.66;2302270;69;20207;-78
2021/08/29 11:57:51;;;;;;;2.00;1.10;;;;;;;18.48;66.12;99485.66;2297503;69;20195;-78
2021/08/29 12:01:01;;;;;;;2.16;1.06;;;;;;;18.49;66.11;99484.75;2297505;67;20186;-78
2021/08/29 12:04:05;;;;;;;1.16;1.00;;;;;;;18.48;66.52;99480.38;2298248;69;20605;-79
2021/08/29 12:07:08;;;;;;;1.26;0.95;;;;;;;18.47;66.78;99477.81;2293779;69;20284;-80
2021/08/29 12:10:14;;;;;;;1.06;0.98;;;;;;;18.39;66.75;99478.09;2297503;69;20298;-78
2021/08/29 12:13:17;;;;;;;3.35;1.13;;;;;;;18.33;67.72;99473.91;2298865;69;20161;-79
2021/08/29 12:16:20;;;;;;;1.01;0.91;;;;;;;18.28;69.26;99467.94;2297651;67;21132;-79
2021/08/29 12:19:27;;;;;;;2.28;1.00;;;;;;;18.29;69.47;99472.28;2294574;69;20266;-79
2021/08/29 12:22:35;;;;;;;2.08;1.00;;;;;;;18.25;69.58;99467.19;2290746;69;20150;-73
2021/08/29 12:25:38;;;;;;;1.10;1.00;;;;;;;18.19;69.08;99472.66;2290039;69;20154;-73
2021/08/29 12:28:40;;;;;;;1.35;1.00;;;;;;;18.17;70.31;99464.84;2290903;69;20166;-73
2021/08/29 12:31:43;;;;;;;1.77;0.99;;;;;;;18.16;70.91;99476.25;2289055;67;22428;-73
2021/08/29 12:34:58;;;;;;;0.90;0.90;;;;;;;18.11;70.69;99471.13;2289932;69;20166;-72
2021/08/29 12:38:01;;;;;;;1.29;1.10;;;;;;;18.01;70.80;99475.00;2289896;69;20154;-78
2021/08/29 12:41:03;;;;;;;51.63;11.46;;;;;;;17.88;69.68;99468.44;2290948;69;20183;-76
2021/08/29 12:44:06;;;;;;;3.24;1.70;;;;;;;17.78;70.75;99470.50;2288608;69;20746;-76
2021/08/29 12:47:09;;;;;;;1.38;1.13;;;;;;;17.63;71.03;99480.63;2289304;68;46739;-77
2021/08/29 12:50:16;;;;;;;1.13;1.01;;;;;;;17.53;72.04;99472.16;2289024;69;20186;-76
2021/08/29 12:53:25;;;;;;;1.14;1.05;;;;;;;17.43;71.65;99474.22;2288099;69;20173;-76
2021/08/29 12:56:32;;;;;;;1.30;1.10;;;;;;;17.36;70.58;99474.44;2289323;69;20178;-77
2021/08/29 12:59:36;;;;;;;1.19;1.09;;;;;;;17.29;71.33;99468.53;2289630;69;20229;-76
2021/08/29 13:02:41;;;;;;;1.85;1.10;;;;;;;17.26;74.12;99473.03;2288560;67;21499;-76
2021/08/29 13:05:45;;;;;;;1.99;0.80;;;;;;;17.27;75.03;99472.09;2290237;69;20202;-75
2021/08/29 13:08:51;;;;;;;2.24;1.29;;;;;;;17.22;75.08;99480.97;2288344;69;20990;-76
2021/08/29 13:11:54;;;;;;;1.20;1.10;;;;;;;17.27;75.14;99474.72;2288438;69;20179;-75
2021/08/29 13:14:59;;;;;;;1.15;1.04;;;;;;;17.32;74.51;99471.06;2289232;69;20162;-76
2021/08/29 13:18:04;;;;;;;1.67;1.17;;;;;;;17.42;74.17;99464.63;2286574;67;23547;-76
2021/08/29 13:21:31;;;;;;;2.71;1.31;;;;;;;17.59;74.86;99468.47;2295868;69;20219;-76
2021/08/29 13:24:35;;;;;;;1.58;1.20;;;;;;;17.75;75.73;99462.72;2296495;69;20154;-76
2021/08/29 13:27:42;;;;;;;1.34;1.21;;;;;;;17.88;75.27;99464.94;2297036;69;20957;-76
2021/08/29 13:30:45;;;;;;;1.65;1.41;;;;;;;17.95;74.22;99466.44;2295224;67;21646;-76
2021/08/29 13:34:04;;;;;;;1.88;1.13;;;;;;;17.97;72.86;99462.03;2291512;69;20203;-76
2021/08/29 13:37:10;;;;;;;1.51;1.30;;;;;;;18.02;72.44;99463.56;2296003;69;20223;-76
2021/08/29 13:40:15;;;;;;;3.35;1.15;;;;;;;18.04;72.41;99472.28;2295856;69;20219;-76
2021/08/29 13:43:24;;;;;;;1.17;1.06;;;;;;;18.04;71.17;99468.78;2296128;69;21052;-76
2021/08/29 13:46:27;;;;;;;;;;;;;;;18.04;70.72;99460.91;2295971;67;20649;-76
2021/08/29 13:49:30;;;;;;;2.72;1.01;;;;;;;18.14;71.60;99450.94;2296267;69;20070;-77
2021/08/29 13:52:38;;;;;;;1.66;1.10;;;;;;;18.32;70.48;99453.81;2291992;69;20715;-77
2021/08/29 13:55:45;;;;;;;1.48;1.17;;;;;;;18.63;70.10;99452.72;2296641;69;20199;-76
2021/08/29 13:58:49;;;;;;;1.64;1.54;;;;;;;18.83;68.90;99460.75;2297991;69;20603;-77
2021/08/29 14:01:52;;;;;;;1.69;1.13;;;;;;;19.04;67.38;99458.25;2295323;67;62095;-77
2021/08/29 14:04:55;;;;;;;2.35;1.01;;;;;;;19.17;66.04;99459.47;2296958;69;20204;-77
2021/08/29 14:08:01;;;;;;;1.24;1.02;;;;;;;19.15;64.26;99461.31;2296125;69;20157;-78
2021/08/29 14:11:05;;;;;;;0.99;0.90;;;;;;;19.13;64.54;99469.28;2297486;69;20169;-78
2021/08/29 14:14:08;;;;;;;1.30;0.95;;;;;;;18.99;63.65;99468.94;2296530;69;20149;-78
2021/08/29 14:17:11;;;;;;;1.06;1.00;;;;;;;18.84;63.94;99466.84;2296452;67;57302;-78
2021/08/29 14:20:14;;;;;;;1.95;1.04;;;;;;;18.77;65.29;99466.25;2296813;69;20161;-78
2021/08/29 14:23:17;;;;;;;1.19;0.90;;;;;;;18.62;65.25;99472.00;2296250;69;20161;-77
2021/08/29 14:26:20;;;;;;;1.01;1.00;;;;;;;18.57;66.31;99466.94;2296094;69;20153;-78
2021/08/29 14:29:23;;;;;;;1.36;0.79;;;;;;;18.53;66.85;99469.72;2297176;69;20203;-79
2021/08/29 14:32:25;;;;;;;0.75;0.63;;;;;;;18.49;68.07;99466.34;2296774;67;22604;-78
2021/08/29 14:35:29;;;;;;;1.59;0.70;;;;;;;18.48;67.41;99455.84;2298772;69;20614;-77